sensor_id;sensor_type;location;lat;lon;timestamp;pressure;altitude;pressure_sealevel;temperature;humidity
72038;BME280;59900;50.788;12.904;2023-05-19T00:00:30;98362.66;;;11.63;60.07
72038;BME280;59900;50.788;12.904;2023-05-19T00:02:55;98371.47;;;11.55;60.31
72038;BME280;59900;50.788;12.904;2023-05-19T00:05:21;98366.84;;;11.57;59.99
72038;BME280;59900;50.788;12.904;2023-05-19T00:07:47;98366.69;;;11.59;59.90
72038;BME280;59900;50.788;12.904;2023-05-19T00:10:15;98370.56;;;11.63;59.65
72038;BME280;59900;50.788;12.904;2023-05-19T00:12:41;98367.94;;;11.63;60.04
72038;BME280;59900;50.788;12.904;2023-05-19T00:15:07;98370.75;;;11.61;60.03
72038;BME280;59900;50.788;12.904;2023-05-19T00:17:32;98367.94;;;11.63;60.16
72038;BME280;59900;50.788;12.904;2023-05-19T00:19:58;98365.13;;;11.64;60.01
72038;BME280;59900;50.788;12.904;2023-05-19T00:22:23;98362.22;;;11.59;60.09
72038;BME280;59900;50.788;12.904;2023-05-19T00:24:48;98356.16;;;11.59;59.97
72038;BME280;59900;50.788;12.904;2023-05-19T00:27:14;98352.50;;;11.60;59.74
72038;BME280;59900;50.788;12.904;2023-05-19T00:29:39;98353.16;;;11.62;59.71
72038;BME280;59900;50.788;12.904;2023-05-19T00:32:05;98352.31;;;11.61;59.82
72038;BME280;59900;50.788;12.904;2023-05-19T00:34:30;98344.88;;;11.65;60.05
72038;BME280;59900;50.788;12.904;2023-05-19T00:36:55;98350.16;;;11.65;59.96
72038;BME280;59900;50.788;12.904;2023-05-19T00:39:20;98342.63;;;11.62;59.71
72038;BME280;59900;50.788;12.904;2023-05-19T00:41:46;98341.59;;;11.63;59.76
72038;BME280;59900;50.788;12.904;2023-05-19T00:44:11;98340.81;;;11.62;59.85
72038;BME280;59900;50.788;12.904;2023-05-19T00:46:36;98337.53;;;11.60;60.07
72038;BME280;59900;50.788;12.904;2023-05-19T00:49:02;98338.72;;;11.58;59.65
72038;BME280;59900;50.788;12.904;2023-05-19T00:51:27;98338.53;;;11.59;59.86
72038;BME280;59900;50.788;12.904;2023-05-19T00:53:53;98336.69;;;11.60;59.96
72038;BME280;59900;50.788;12.904;2023-05-19T00:56:19;98336.69;;;11.60;60.22
72038;BME280;59900;50.788;12.904;2023-05-19T00:58:46;98324.72;;;11.57;60.82
72038;BME280;59900;50.788;12.904;2023-05-19T01:01:12;98335.44;;;11.56;60.95
72038;BME280;59900;50.788;12.904;2023-05-19T01:03:38;98332.00;;;11.55;61.01
72038;BME280;59900;50.788;12.904;2023-05-19T01:06:05;98338.81;;;11.50;61.44
72038;BME280;59900;50.788;12.904;2023-05-19T01:08:31;98332.25;;;11.46;61.68
72038;BME280;59900;50.788;12.904;2023-05-19T01:10:57;98333.28;;;11.45;62.10
72038;BME280;59900;50.788;12.904;2023-05-19T01:13:22;98332.47;;;11.44;62.23
72038;BME280;59900;50.788;12.904;2023-05-19T01:15:57;98340.34;;;11.44;62.09
72038;BME280;59900;50.788;12.904;2023-05-19T01:18:37;98331.81;;;11.42;63.08
72038;BME280;59900;50.788;12.904;2023-05-19T01:24:22;98335.72;;;11.46;64.25
72038;BME280;59900;50.788;12.904;2023-05-19T01:27:22;98335.34;;;11.35;64.22
72038;BME280;59900;50.788;12.904;2023-05-19T01:32:58;98337.00;;;11.36;62.86
72038;BME280;59900;50.788;12.904;2023-05-19T01:35:25;98337.00;;;11.36;62.13
72038;BME280;59900;50.788;12.904;2023-05-19T01:37:54;98333.34;;;11.37;61.65
72038;BME280;59900;50.788;12.904;2023-05-19T01:40:20;98332.09;;;11.33;61.63
72038;BME280;59900;50.788;12.904;2023-05-19T01:42:46;98331.63;;;11.29;61.63
72038;BME280;59900;50.788;12.904;2023-05-19T01:45:12;98330.53;;;11.23;61.56
72038;BME280;59900;50.788;12.904;2023-05-19T01:47:41;98337.41;;;11.24;61.78
72038;BME280;59900;50.788;12.904;2023-05-19T01:50:07;98330.19;;;11.27;62.04
72038;BME280;59900;50.788;12.904;2023-05-19T01:52:32;98335.25;;;11.28;62.11
72038;BME280;59900;50.788;12.904;2023-05-19T01:54:58;98329.81;;;11.30;62.35
72038;BME280;59900;50.788;12.904;2023-05-19T01:57:30;98338.16;;;11.33;62.30
72038;BME280;59900;50.788;12.904;2023-05-19T02:00:33;98327.81;;;11.32;62.03
72038;BME280;59900;50.788;12.904;2023-05-19T02:03:25;98333.91;;;11.32;62.22
72038;BME280;59900;50.788;12.904;2023-05-19T02:06:17;98330.66;;;11.30;62.53
72038;BME280;59900;50.788;12.904;2023-05-19T02:08:56;98328.06;;;11.22;62.16
72038;BME280;59900;50.788;12.904;2023-05-19T02:16:51;98328.28;;;11.20;62.55
72038;BME280;59900;50.788;12.904;2023-05-19T02:19:31;98331.06;;;11.19;62.83
72038;BME280;59900;50.788;12.904;2023-05-19T02:21:57;98329.00;;;11.14;62.66
72038;BME280;59900;50.788;12.904;2023-05-19T02:24:23;98324.34;;;11.16;62.87
72038;BME280;59900;50.788;12.904;2023-05-19T02:26:52;98321.63;;;11.10;62.96
72038;BME280;59900;50.788;12.904;2023-05-19T02:29:21;98326.25;;;11.08;63.06
72038;BME280;59900;50.788;12.904;2023-05-19T02:31:46;98325.91;;;11.11;63.19
72038;BME280;59900;50.788;12.904;2023-05-19T02:34:12;98320.84;;;11.09;63.42
72038;BME280;59900;50.788;12.904;2023-05-19T02:36:39;98318.00;;;11.11;63.37
72038;BME280;59900;50.788;12.904;2023-05-19T02:39:13;98320.47;;;11.12;63.14
72038;BME280;59900;50.788;12.904;2023-05-19T02:41:39;98322.91;;;11.14;63.25
72038;BME280;59900;50.788;12.904;2023-05-19T02:44:05;98316.66;;;11.15;62.84
72038;BME280;59900;50.788;12.904;2023-05-19T02:46:30;98315.84;;;11.14;62.44
72038;BME280;59900;50.788;12.904;2023-05-19T02:48:55;98306.66;;;11.10;62.76
72038;BME280;59900;50.788;12.904;2023-05-19T02:51:20;98301.75;;;11.07;62.88
72038;BME280;59900;50.788;12.904;2023-05-19T02:53:46;98300.31;;;11.05;63.36
72038;BME280;59900;50.788;12.904;2023-05-19T02:56:11;98304.28;;;11.01;63.18
72038;BME280;59900;50.788;12.904;2023-05-19T02:58:36;98298.25;;;11.00;63.45
72038;BME280;59900;50.788;12.904;2023-05-19T03:01:02;98296.13;;;10.96;63.62
72038;BME280;59900;50.788;12.904;2023-05-19T03:03:27;98299.47;;;10.90;64.03
72038;BME280;59900;50.788;12.904;2023-05-19T03:05:52;98303.63;;;10.84;64.57
72038;BME280;59900;50.788;12.904;2023-05-19T03:08:18;98304.09;;;10.88;64.67
72038;BME280;59900;50.788;12.904;2023-05-19T03:10:44;98298.38;;;10.84;64.63
72038;BME280;59900;50.788;12.904;2023-05-19T03:13:10;98304.47;;;10.85;65.61
72038;BME280;59900;50.788;12.904;2023-05-19T03:15:35;98305.06;;;10.72;64.48
72038;BME280;59900;50.788;12.904;2023-05-19T03:18:00;98296.53;;;10.70;64.74
72038;BME280;59900;50.788;12.904;2023-05-19T03:20:25;98301.81;;;10.70;64.03
72038;BME280;59900;50.788;12.904;2023-05-19T03:22:51;98301.22;;;10.60;64.24
72038;BME280;59900;50.788;12.904;2023-05-19T03:25:16;98301.56;;;10.57;64.59
72038;BME280;59900;50.788;12.904;2023-05-19T03:27:41;98292.69;;;10.58;65.38
72038;BME280;59900;50.788;12.904;2023-05-19T03:30:07;98294.69;;;10.56;65.42
72038;BME280;59900;50.788;12.904;2023-05-19T03:32:33;98292.22;;;10.54;65.79
72038;BME280;59900;50.788;12.904;2023-05-19T03:35:02;98298.38;;;10.47;66.00
72038;BME280;59900;50.788;12.904;2023-05-19T03:37:27;98295.47;;;10.42;65.33
72038;BME280;59900;50.788;12.904;2023-05-19T03:39:52;98287.13;;;10.38;65.75
72038;BME280;59900;50.788;12.904;2023-05-19T03:42:17;98301.44;;;10.36;66.04
72038;BME280;59900;50.788;12.904;2023-05-19T03:44:42;98298.34;;;10.32;66.17
72038;BME280;59900;50.788;12.904;2023-05-19T03:47:08;98297.50;;;10.32;66.91
72038;BME280;59900;50.788;12.904;2023-05-19T03:49:33;98297.34;;;10.33;67.22
72038;BME280;59900;50.788;12.904;2023-05-19T03:51:59;98301.59;;;10.34;67.11
72038;BME280;59900;50.788;12.904;2023-05-19T03:54:27;98291.78;;;10.28;67.87
72038;BME280;59900;50.788;12.904;2023-05-19T03:56:52;98304.28;;;10.26;67.21
72038;BME280;59900;50.788;12.904;2023-05-19T03:59:17;98300.84;;;10.26;66.87
72038;BME280;59900;50.788;12.904;2023-05-19T04:01:42;98301.47;;;10.28;66.93
72038;BME280;59900;50.788;12.904;2023-05-19T04:04:08;98304.75;;;10.30;66.61
72038;BME280;59900;50.788;12.904;2023-05-19T04:06:33;98309.66;;;10.33;67.17
72038;BME280;59900;50.788;12.904;2023-05-19T04:09:01;98298.34;;;10.32;67.46
72038;BME280;59900;50.788;12.904;2023-05-19T04:11:26;98299.31;;;10.31;67.85
72038;BME280;59900;50.788;12.904;2023-05-19T04:13:51;98297.50;;;10.32;67.83
72038;BME280;59900;50.788;12.904;2023-05-19T04:16:17;98299.78;;;10.35;66.56
72038;BME280;59900;50.788;12.904;2023-05-19T04:18:42;98301.94;;;10.31;66.37
72038;BME280;59900;50.788;12.904;2023-05-19T04:21:09;98305.59;;;10.30;66.34
72038;BME280;59900;50.788;12.904;2023-05-19T04:23:34;98303.25;;;10.35;66.75
72038;BME280;59900;50.788;12.904;2023-05-19T04:26:00;98298.44;;;10.39;66.89
72038;BME280;59900;50.788;12.904;2023-05-19T04:28:26;98304.34;;;10.41;67.08
72038;BME280;59900;50.788;12.904;2023-05-19T04:30:51;98304.63;;;10.46;66.99
72038;BME280;59900;50.788;12.904;2023-05-19T04:33:17;98307.72;;;10.49;66.83
72038;BME280;59900;50.788;12.904;2023-05-19T04:35:44;98312.78;;;10.51;67.73
72038;BME280;59900;50.788;12.904;2023-05-19T04:38:09;98311.16;;;10.50;68.25
72038;BME280;59900;50.788;12.904;2023-05-19T04:40:35;98318.03;;;10.51;67.98
72038;BME280;59900;50.788;12.904;2023-05-19T04:43:01;98316.53;;;10.56;67.74
72038;BME280;59900;50.788;12.904;2023-05-19T04:45:26;98319.47;;;10.61;67.76
72038;BME280;59900;50.788;12.904;2023-05-19T04:47:52;98324.25;;;10.58;67.93
72038;BME280;59900;50.788;12.904;2023-05-19T04:50:21;98328.63;;;10.65;68.17
72038;BME280;59900;50.788;12.904;2023-05-19T04:52:47;98318.75;;;10.67;68.00
72038;BME280;59900;50.788;12.904;2023-05-19T04:55:12;98319.38;;;10.69;67.63
72038;BME280;59900;50.788;12.904;2023-05-19T04:57:38;98313.97;;;10.71;68.07
72038;BME280;59900;50.788;12.904;2023-05-19T05:00:04;98317.56;;;10.70;68.30
72038;BME280;59900;50.788;12.904;2023-05-19T05:02:32;98322.75;;;10.78;68.00
72038;BME280;59900;50.788;12.904;2023-05-19T05:04:57;98316.31;;;10.81;67.89
72038;BME280;59900;50.788;12.904;2023-05-19T05:07:23;98315.44;;;10.88;67.62
72038;BME280;59900;50.788;12.904;2023-05-19T05:09:48;98316.53;;;10.94;67.78
72038;BME280;59900;50.788;12.904;2023-05-19T05:12:14;98314.00;;;11.00;67.45
72038;BME280;59900;50.788;12.904;2023-05-19T05:14:40;98309.38;;;11.02;67.11
72038;BME280;59900;50.788;12.904;2023-05-19T05:17:06;98310.22;;;11.03;67.09
72038;BME280;59900;50.788;12.904;2023-05-19T05:19:32;98319.00;;;11.10;67.26
72038;BME280;59900;50.788;12.904;2023-05-19T05:21:58;98313.22;;;11.14;67.02
72038;BME280;59900;50.788;12.904;2023-05-19T05:24:23;98314.09;;;11.21;67.11
72038;BME280;59900;50.788;12.904;2023-05-19T05:26:48;98314.41;;;11.27;66.90
72038;BME280;59900;50.788;12.904;2023-05-19T05:29:14;98311.66;;;11.35;66.48
72038;BME280;59900;50.788;12.904;2023-05-19T05:31:39;98305.69;;;11.41;66.25
72038;BME280;59900;50.788;12.904;2023-05-19T05:34:05;98301.69;;;11.45;65.80
72038;BME280;59900;50.788;12.904;2023-05-19T05:36:31;98305.41;;;11.50;65.91
72038;BME280;59900;50.788;12.904;2023-05-19T05:38:56;98301.03;;;11.57;65.92
72038;BME280;59900;50.788;12.904;2023-05-19T05:41:23;98303.50;;;11.59;65.69
72038;BME280;59900;50.788;12.904;2023-05-19T05:43:48;98306.94;;;11.59;65.56
72038;BME280;59900;50.788;12.904;2023-05-19T05:46:13;98307.84;;;11.66;66.18
72038;BME280;59900;50.788;12.904;2023-05-19T05:48:39;98313.72;;;11.68;65.17
72038;BME280;59900;50.788;12.904;2023-05-19T05:51:06;98312.41;;;11.72;64.60
72038;BME280;59900;50.788;12.904;2023-05-19T05:53:36;98314.03;;;11.73;64.66
72038;BME280;59900;50.788;12.904;2023-05-19T05:56:04;98318.38;;;11.81;64.22
72038;BME280;59900;50.788;12.904;2023-05-19T05:58:30;98320.88;;;11.89;64.97
72038;BME280;59900;50.788;12.904;2023-05-19T06:00:56;98321.53;;;11.91;64.96
72038;BME280;59900;50.788;12.904;2023-05-19T06:03:21;98322.03;;;12.01;64.53
72038;BME280;59900;50.788;12.904;2023-05-19T06:05:48;98322.13;;;12.08;63.97
72038;BME280;59900;50.788;12.904;2023-05-19T06:08:13;98324.84;;;12.14;63.84
72038;BME280;59900;50.788;12.904;2023-05-19T06:10:38;98317.00;;;12.21;64.01
72038;BME280;59900;50.788;12.904;2023-05-19T06:13:05;98317.81;;;12.21;63.48
72038;BME280;59900;50.788;12.904;2023-05-19T06:15:30;98306.53;;;12.27;63.63
72038;BME280;59900;50.788;12.904;2023-05-19T06:17:56;98314.44;;;12.27;63.27
72038;BME280;59900;50.788;12.904;2023-05-19T06:20:21;98318.25;;;12.25;63.39
72038;BME280;59900;50.788;12.904;2023-05-19T06:22:46;98310.78;;;12.28;63.61
72038;BME280;59900;50.788;12.904;2023-05-19T06:25:12;98320.38;;;12.36;63.39
72038;BME280;59900;50.788;12.904;2023-05-19T06:27:37;98312.56;;;12.43;63.46
72038;BME280;59900;50.788;12.904;2023-05-19T06:30:03;98316.69;;;12.52;63.36
72038;BME280;59900;50.788;12.904;2023-05-19T06:32:28;98316.56;;;12.60;63.33
72038;BME280;59900;50.788;12.904;2023-05-19T06:34:54;98313.81;;;12.47;63.09
72038;BME280;59900;50.788;12.904;2023-05-19T06:37:22;98312.19;;;12.46;63.21
72038;BME280;59900;50.788;12.904;2023-05-19T06:39:52;98309.97;;;12.49;63.08
72038;BME280;59900;50.788;12.904;2023-05-19T06:42:20;98313.44;;;12.50;63.34
72038;BME280;59900;50.788;12.904;2023-05-19T06:44:48;98315.00;;;12.44;63.51
72038;BME280;59900;50.788;12.904;2023-05-19T06:47:13;98299.56;;;12.41;63.36
72038;BME280;59900;50.788;12.904;2023-05-19T06:49:39;98302.44;;;12.46;63.35
72038;BME280;59900;50.788;12.904;2023-05-19T06:52:04;98305.72;;;12.48;63.21
72038;BME280;59900;50.788;12.904;2023-05-19T06:54:29;98304.34;;;12.52;63.27
72038;BME280;59900;50.788;12.904;2023-05-19T06:56:55;98300.50;;;12.55;63.49
72038;BME280;59900;50.788;12.904;2023-05-19T06:59:20;98304.13;;;12.54;63.74
72038;BME280;59900;50.788;12.904;2023-05-19T07:01:47;98306.66;;;12.62;63.26
72038;BME280;59900;50.788;12.904;2023-05-19T07:04:12;98296.53;;;12.65;62.98
72038;BME280;59900;50.788;12.904;2023-05-19T07:06:37;98306.56;;;12.76;62.72
72038;BME280;59900;50.788;12.904;2023-05-19T07:09:02;98304.63;;;12.85;63.13
72038;BME280;59900;50.788;12.904;2023-05-19T07:11:29;98309.75;;;12.93;62.40
72038;BME280;59900;50.788;12.904;2023-05-19T07:13:54;98304.09;;;12.96;62.73
72038;BME280;59900;50.788;12.904;2023-05-19T07:16:19;98302.06;;;12.98;62.71
72038;BME280;59900;50.788;12.904;2023-05-19T07:18:45;98304.75;;;13.05;62.89
72038;BME280;59900;50.788;12.904;2023-05-19T07:21:10;98302.94;;;13.05;62.00
72038;BME280;59900;50.788;12.904;2023-05-19T07:23:35;98306.66;;;13.11;62.31
72038;BME280;59900;50.788;12.904;2023-05-19T07:26:00;98306.31;;;13.20;61.96
72038;BME280;59900;50.788;12.904;2023-05-19T07:28:26;98305.78;;;13.31;61.46
72038;BME280;59900;50.788;12.904;2023-05-19T07:30:51;98305.59;;;13.39;61.63
72038;BME280;59900;50.788;12.904;2023-05-19T07:33:17;98300.59;;;13.51;61.40
72038;BME280;59900;50.788;12.904;2023-05-19T07:35:42;98282.97;;;13.58;61.50
72038;BME280;59900;50.788;12.904;2023-05-19T07:38:08;98284.44;;;13.74;61.14
72038;BME280;59900;50.788;12.904;2023-05-19T07:40:33;98287.50;;;13.77;59.64
72038;BME280;59900;50.788;12.904;2023-05-19T07:42:58;98287.53;;;13.84;59.39
72038;BME280;59900;50.788;12.904;2023-05-19T07:45:24;98289.97;;;13.92;59.20
72038;BME280;59900;50.788;12.904;2023-05-19T07:47:49;98284.72;;;13.98;59.35
72038;BME280;59900;50.788;12.904;2023-05-19T07:50:14;98278.03;;;14.02;58.86
72038;BME280;59900;50.788;12.904;2023-05-19T07:52:43;98252.38;;;13.90;59.64
72038;BME280;59900;50.788;12.904;2023-05-19T07:55:08;98273.38;;;14.04;59.78
72038;BME280;59900;50.788;12.904;2023-05-19T07:57:33;98272.53;;;13.97;59.79
72038;BME280;59900;50.788;12.904;2023-05-19T07:59:59;98270.75;;;14.11;58.95
72038;BME280;59900;50.788;12.904;2023-05-19T08:02:24;98265.25;;;14.13;59.03
72038;BME280;59900;50.788;12.904;2023-05-19T08:04:49;98268.53;;;14.15;58.06
72038;BME280;59900;50.788;12.904;2023-05-19T08:07:14;98264.03;;;14.15;58.39
72038;BME280;59900;50.788;12.904;2023-05-19T08:09:40;98268.91;;;14.05;58.21
72038;BME280;59900;50.788;12.904;2023-05-19T08:12:05;98267.66;;;14.01;57.92
72038;BME280;59900;50.788;12.904;2023-05-19T08:14:30;98270.31;;;14.08;58.11
72038;BME280;59900;50.788;12.904;2023-05-19T08:16:57;98276.84;;;14.18;57.94
72038;BME280;59900;50.788;12.904;2023-05-19T08:19:22;98265.88;;;14.28;57.43
72038;BME280;59900;50.788;12.904;2023-05-19T08:21:47;98266.53;;;14.36;56.32
72038;BME280;59900;50.788;12.904;2023-05-19T08:24:13;98274.25;;;14.44;56.62
72038;BME280;59900;50.788;12.904;2023-05-19T08:26:39;98265.53;;;14.37;55.47
72038;BME280;59900;50.788;12.904;2023-05-19T08:29:04;98269.56;;;14.33;55.95
72038;BME280;59900;50.788;12.904;2023-05-19T08:31:30;98270.41;;;14.40;54.93
72038;BME280;59900;50.788;12.904;2023-05-19T08:33:55;98267.31;;;14.30;55.05
72038;BME280;59900;50.788;12.904;2023-05-19T08:36:20;98259.59;;;14.29;55.71
72038;BME280;59900;50.788;12.904;2023-05-19T08:38:46;98260.81;;;14.33;55.48
72038;BME280;59900;50.788;12.904;2023-05-19T08:41:11;98264.09;;;14.41;55.40
72038;BME280;59900;50.788;12.904;2023-05-19T08:43:36;98262.69;;;14.45;55.58
72038;BME280;59900;50.788;12.904;2023-05-19T08:46:03;98260.47;;;14.55;55.15
72038;BME280;59900;50.788;12.904;2023-05-19T08:48:30;98251.50;;;14.56;56.04
72038;BME280;59900;50.788;12.904;2023-05-19T08:53:36;98257.59;;;14.70;55.25
72038;BME280;59900;50.788;12.904;2023-05-19T08:56:08;98246.22;;;14.70;54.89
72038;BME280;59900;50.788;12.904;2023-05-19T08:58:37;98246.00;;;14.91;55.93
72038;BME280;59900;50.788;12.904;2023-05-19T09:01:05;98247.78;;;15.03;54.77
72038;BME280;59900;50.788;12.904;2023-05-19T09:03:32;98240.63;;;15.17;55.22
72038;BME280;59900;50.788;12.904;2023-05-19T09:06:11;98238.19;;;15.09;54.43
72038;BME280;59900;50.788;12.904;2023-05-19T09:08:37;98237.59;;;15.13;54.06
72038;BME280;59900;50.788;12.904;2023-05-19T09:11:02;98238.81;;;15.11;54.39
72038;BME280;59900;50.788;12.904;2023-05-19T09:13:28;98236.94;;;15.18;54.17
72038;BME280;59900;50.788;12.904;2023-05-19T09:15:55;98222.09;;;15.17;54.41
72038;BME280;59900;50.788;12.904;2023-05-19T09:18:23;98231.47;;;15.13;55.72
72038;BME280;59900;50.788;12.904;2023-05-19T09:20:48;98226.78;;;15.15;55.64
72038;BME280;59900;50.788;12.904;2023-05-19T09:23:15;98218.63;;;15.23;55.45
72038;BME280;59900;50.788;12.904;2023-05-19T09:25:52;98216.16;;;15.28;53.12
72038;BME280;59900;50.788;12.904;2023-05-19T09:28:31;98217.78;;;15.29;53.36
72038;BME280;59900;50.788;12.904;2023-05-19T09:31:06;98208.97;;;15.35;53.54
72038;BME280;59900;50.788;12.904;2023-05-19T09:33:33;98216.91;;;15.42;53.54
72038;BME280;59900;50.788;12.904;2023-05-19T09:35:59;98210.81;;;15.48;53.28
72038;BME280;59900;50.788;12.904;2023-05-19T09:38:25;98202.03;;;15.47;52.39
72038;BME280;59900;50.788;12.904;2023-05-19T09:40:51;98207.53;;;15.52;52.11
72038;BME280;59900;50.788;12.904;2023-05-19T09:43:17;98210.97;;;15.53;50.81
72038;BME280;59900;50.788;12.904;2023-05-19T09:45:42;98210.75;;;15.61;48.94
72038;BME280;59900;50.788;12.904;2023-05-19T09:48:07;98205.22;;;15.69;47.84
72038;BME280;59900;50.788;12.904;2023-05-19T09:50:33;98209.84;;;15.80;47.22
72038;BME280;59900;50.788;12.904;2023-05-19T09:52:59;98192.09;;;15.81;46.61
72038;BME280;59900;50.788;12.904;2023-05-19T09:55:27;98207.56;;;15.84;46.50
72038;BME280;59900;50.788;12.904;2023-05-19T09:57:54;98206.72;;;15.90;47.10
72038;BME280;59900;50.788;12.904;2023-05-19T10:00:21;98197.16;;;15.89;46.67
72038;BME280;59900;50.788;12.904;2023-05-19T10:02:48;98196.72;;;15.92;47.01
72038;BME280;59900;50.788;12.904;2023-05-19T10:05:18;98206.44;;;16.04;48.02
72038;BME280;59900;50.788;12.904;2023-05-19T10:07:49;98201.28;;;16.09;44.77
72038;BME280;59900;50.788;12.904;2023-05-19T10:10:15;98190.72;;;16.03;43.88
72038;BME280;59900;50.788;12.904;2023-05-19T10:12:41;98193.22;;;15.98;43.46
72038;BME280;59900;50.788;12.904;2023-05-19T10:15:11;98187.47;;;16.01;44.27
72038;BME280;59900;50.788;12.904;2023-05-19T10:17:41;98194.41;;;16.02;44.27
72038;BME280;59900;50.788;12.904;2023-05-19T10:20:13;98190.72;;;16.03;45.31
72038;BME280;59900;50.788;12.904;2023-05-19T10:22:40;98182.09;;;16.14;46.79
72038;BME280;59900;50.788;12.904;2023-05-19T10:25:07;98179.81;;;16.17;45.59
72038;BME280;59900;50.788;12.904;2023-05-19T10:27:35;98177.84;;;16.06;45.28
72038;BME280;59900;50.788;12.904;2023-05-19T10:30:06;98174.16;;;16.14;46.97
72038;BME280;59900;50.788;12.904;2023-05-19T10:32:34;98173.09;;;16.15;46.88
72038;BME280;59900;50.788;12.904;2023-05-19T10:35:11;98156.75;;;16.18;47.04
72038;BME280;59900;50.788;12.904;2023-05-19T10:37:50;98172.19;;;16.27;48.17
72038;BME280;59900;50.788;12.904;2023-05-19T10:40:26;98169.13;;;16.31;47.80
72038;BME280;59900;50.788;12.904;2023-05-19T10:42:55;98174.53;;;16.42;48.10
72038;BME280;59900;50.788;12.904;2023-05-19T10:45:22;98173.88;;;16.47;47.96
72038;BME280;59900;50.788;12.904;2023-05-19T10:47:51;98169.53;;;16.52;48.11
72038;BME280;59900;50.788;12.904;2023-05-19T10:50:16;98153.75;;;16.64;47.61
72038;BME280;59900;50.788;12.904;2023-05-19T10:52:41;98152.56;;;16.60;46.92
72038;BME280;59900;50.788;12.904;2023-05-19T10:55:11;98160.03;;;16.69;46.93
72038;BME280;59900;50.788;12.904;2023-05-19T10:57:53;98164.38;;;16.82;47.25
72038;BME280;59900;50.788;12.904;2023-05-19T11:00:28;98156.34;;;16.89;47.00
72038;BME280;59900;50.788;12.904;2023-05-19T11:02:53;98145.50;;;16.90;46.52
72038;BME280;59900;50.788;12.904;2023-05-19T11:05:35;98156.78;;;17.04;46.69
72038;BME280;59900;50.788;12.904;2023-05-19T11:08:00;98158.88;;;17.02;46.19
72038;BME280;59900;50.788;12.904;2023-05-19T11:10:28;98159.88;;;17.01;45.72
72038;BME280;59900;50.788;12.904;2023-05-19T11:12:55;98157.66;;;16.98;46.09
72038;BME280;59900;50.788;12.904;2023-05-19T11:15:24;98155.41;;;17.01;45.55
72038;BME280;59900;50.788;12.904;2023-05-19T11:17:51;98148.25;;;17.02;45.22
72038;BME280;59900;50.788;12.904;2023-05-19T11:20:25;98155.03;;;17.16;44.51
72038;BME280;59900;50.788;12.904;2023-05-19T11:23:09;98149.25;;;17.37;43.86
72038;BME280;59900;50.788;12.904;2023-05-19T11:25:42;98139.47;;;17.49;42.76
72038;BME280;59900;50.788;12.904;2023-05-19T11:28:09;98142.66;;;17.58;42.28
72038;BME280;59900;50.788;12.904;2023-05-19T11:30:36;98141.97;;;17.62;42.86
72038;BME280;59900;50.788;12.904;2023-05-19T11:33:02;98142.56;;;17.64;44.72
72038;BME280;59900;50.788;12.904;2023-05-19T11:35:28;98129.59;;;17.56;43.77
72038;BME280;59900;50.788;12.904;2023-05-19T11:37:55;98126.75;;;17.69;44.27
72038;BME280;59900;50.788;12.904;2023-05-19T11:40:20;98132.28;;;17.68;44.64
72038;BME280;59900;50.788;12.904;2023-05-19T11:42:46;98118.78;;;17.69;45.50
72038;BME280;59900;50.788;12.904;2023-05-19T11:45:11;98130.34;;;17.75;46.25
72038;BME280;59900;50.788;12.904;2023-05-19T11:47:37;98121.84;;;17.84;45.68
72038;BME280;59900;50.788;12.904;2023-05-19T11:50:02;98129.72;;;18.03;45.67
72038;BME280;59900;50.788;12.904;2023-05-19T11:52:27;98122.56;;;18.15;45.78
72038;BME280;59900;50.788;12.904;2023-05-19T11:54:53;98120.72;;;18.15;46.72
72038;BME280;59900;50.788;12.904;2023-05-19T11:57:18;98129.50;;;18.16;47.18
72038;BME280;59900;50.788;12.904;2023-05-19T11:59:47;98120.63;;;18.22;47.58
72038;BME280;59900;50.788;12.904;2023-05-19T12:02:23;98116.56;;;18.31;47.10
72038;BME280;59900;50.788;12.904;2023-05-19T12:04:52;98124.09;;;18.45;46.66
72038;BME280;59900;50.788;12.904;2023-05-19T12:07:22;98124.13;;;18.57;46.61
72038;BME280;59900;50.788;12.904;2023-05-19T12:09:49;98122.94;;;18.76;46.18
72038;BME280;59900;50.788;12.904;2023-05-19T12:12:17;98120.22;;;18.99;45.42
72038;BME280;59900;50.788;12.904;2023-05-19T12:14:43;98111.22;;;19.00;45.78
72038;BME280;59900;50.788;12.904;2023-05-19T12:17:14;98118.97;;;19.02;45.41
72038;BME280;59900;50.788;12.904;2023-05-19T12:19:42;98115.94;;;19.10;45.02
72038;BME280;59900;50.788;12.904;2023-05-19T12:22:08;98112.34;;;19.16;44.68
72038;BME280;59900;50.788;12.904;2023-05-19T12:24:35;98109.50;;;19.34;44.62
72038;BME280;59900;50.788;12.904;2023-05-19T12:27:21;98102.44;;;19.40;44.00
72038;BME280;59900;50.788;12.904;2023-05-19T12:29:51;98119.63;;;19.61;44.63
72038;BME280;59900;50.788;12.904;2023-05-19T12:32:16;98117.94;;;19.88;44.15
72038;BME280;59900;50.788;12.904;2023-05-19T12:34:42;98122.50;;;20.04;42.70
72038;BME280;59900;50.788;12.904;2023-05-19T12:37:09;98121.69;;;20.20;42.97
72038;BME280;59900;50.788;12.904;2023-05-19T12:39:35;98112.16;;;20.24;42.64
72038;BME280;59900;50.788;12.904;2023-05-19T12:42:10;98116.19;;;20.43;42.20
72038;BME280;59900;50.788;12.904;2023-05-19T12:44:47;98122.78;;;20.74;40.86
72038;BME280;59900;50.788;12.904;2023-05-19T12:47:13;98106.03;;;21.00;40.79
72038;BME280;59900;50.788;12.904;2023-05-19T12:50:01;98118.50;;;20.73;41.44
72038;BME280;59900;50.788;12.904;2023-05-19T12:52:28;98112.06;;;20.91;41.51
72038;BME280;59900;50.788;12.904;2023-05-19T12:55:00;98106.22;;;20.94;41.58
72038;BME280;59900;50.788;12.904;2023-05-19T12:57:27;98107.31;;;20.76;42.19
72038;BME280;59900;50.788;12.904;2023-05-19T12:59:59;98104.25;;;20.46;42.36
72038;BME280;59900;50.788;12.904;2023-05-19T13:02:24;98100.00;;;20.50;41.88
72038;BME280;59900;50.788;12.904;2023-05-19T13:04:49;98080.28;;;20.51;42.35